• Join FlightAware (Why Join?)
  • Login
  • US Flag 
11:31AM EDT


 

Airport Tracker/Info


-or-


 

Live Flight TrackerFlight Track Log ✈ EJA929 ✈ 21-Feb-2014 ✈ KRIL - KFOD

Flight Track Log - Related Links

Times and Time Zones

All times are in EST time to prevent confusion due to time zone crossing. See the EJA929 flight status page for this flight to view local times or setup timezone preferences in your user account.

Time Position Orientation Groundspeed Altitude Reporting Facility
EST Latitude Longitude Course Direction KTS MPH feet Rate Location/Type
01:36PM 39.5372 -107.7678 285° West 122 140 8,000  Level Denver Center
01:37PM 39.5767 -107.7178 44° Northeast 230 265 12,700 4,200 Climbing Denver Center
01:38PM 39.5797 -107.6028 88° East 288 331 16,700 3,000 Climbing Denver Center
01:39PM 39.5800 -107.4872 90° East 331 381 18,900 2,460 Climbing Denver Center
01:40PM 39.6359 -106.7488 79° East  Level FlightAware Approximate
01:40PM 39.5831 -107.3339 88° East 374 430 21,800  Level Denver Center
01:41PM 39.5867 -107.1914 88° East 404 465 24,500 2,760 Climbing Denver Center
01:43PM 39.6094 -106.8656 85° East 453 521 30,400 2,580 Climbing Denver Center
01:44PM 39.6317 -106.7083 80° East 462 532 32,600 1,800 Climbing Denver Center
01:45PM 39.6589 -106.5122 80° East 492 566 34,200 1,980 Climbing Denver Center
01:46PM 39.6842 -106.3225 80° East 512 589 36,800 1,320 Climbing Denver Center
01:47PM 39.7106 -106.1292 80° East 518 596 37,000 60 Climbing Denver Center
01:48PM 39.7356 -105.9406 80° East 529 609 37,000  Level Denver Center
01:49PM 39.7578 -105.7517 81° East 531 611 37,000  Level Denver Center
01:50PM 39.7817 -105.5608 81° East 535 616 37,000  Level Denver Center
01:51PM 39.8053 -105.3689 81° East 538 619 37,000  Level Denver Center
01:52PM 39.8278 -105.1850 81° East 518 596 37,000  Level Denver Center
01:53PM 39.8497 -105.0031 81° East 509 586 37,000  Level Denver Center
01:54PM 39.8750 -104.7850 81° East 504 580 37,000  Level Denver Center
01:55PM 39.8972 -104.6028 81° East 503 579 37,000  Level Denver Center
01:56PM 39.9292 -104.4128 78° East 526 605 37,000  Level Denver Center
01:57PM 39.9608 -104.2217 78° East 537 618 37,000  Level Denver Center
01:58PM 39.9908 -104.0344 78° East 530 610 37,000  Level Denver Center
01:59PM 40.0208 -103.8517 78° East 520 598 37,000  Level Denver Center
02:00PM 40.0494 -103.6700 78° East 513 590 37,000  Level Denver Center
02:02PM 40.0853 -103.4464 78° East 523 602 37,000  Level Denver Center
02:03PM 40.1356 -103.2681 70° East 528 608 37,000  Level Denver Center
02:04PM 40.1917 -103.0925 67° East 526 605 37,000  Level Denver Center
02:05PM 40.2472 -102.9153 68° East 527 606 37,000  Level Denver Center
02:06PM 40.3006 -102.7403 68° East 521 600 37,000  Level Denver Center
02:07PM 40.3567 -102.5614 68° East 511 588 37,000  Level Denver Center
02:08PM 40.4156 -102.3686 68° East 509 586 37,000  Level Denver Center
02:09PM 40.4664 -102.2033 68° East 511 588 37,000  Level Denver Center
02:10PM 40.5258 -102.0081 68° East 515 593 37,000  Level Denver Center
02:11PM 40.5753 -101.8411 69° East 512 589 37,000  Level Denver Center
02:12PM 40.6342 -101.6450 68° East 515 593 37,000  Level Denver Center
02:13PM 40.6844 -101.4753 69° East 519 597 37,000  Level Denver Center
02:14PM 40.7442 -101.2750 68° East 525 604 37,000  Level Denver Center
02:15PM 40.7944 -101.1028 69° East 524 603 37,000  Level Denver Center
02:16PM 40.8442 -100.9308 69° East 522 601 37,000  Level Denver Center
02:17PM 40.8964 -100.7469 69° East 515 593 37,000  Level Denver Center
02:18PM 40.9536 -100.5539 69° East 515 593 37,000  Level Denver Center
02:19PM 41.0033 -100.3786 69° East 525 604 37,000  Level Denver Center
02:20PM 41.0606 -100.1742 70° East 529 609 37,000  Level Denver Center
02:21PM 41.1108 -99.9961 69° East 534 615 37,000  Level Denver Center
02:22PM 41.1686 -99.7889 70° East 536 617 37,000  Level Denver Center
02:23PM 41.2169 -99.6106 70° East 537 618 37,000  Level Denver Center
02:24PM 41.2697 -99.4206 70° East 538 619 37,000  Level Denver Center
02:25PM 41.3200 -99.2300 71° East 541 623 37,000  Level Denver Center
02:26PM 41.3719 -99.0392 70° East 542 624 37,000  Level Denver Center
02:27PM 41.4292 -98.8258 70° East 542 624 37,000  Level Minneapolis Center
02:28PM 41.4811 -98.6350 70° East 545 627 37,000  Level Minneapolis Center
02:29PM 41.5358 -98.4228 71° East 544 626 37,000  Level Minneapolis Center
02:31PM 41.5872 -98.2303 70° East 546 628 37,000  Level Minneapolis Center
02:32PM 41.6394 -98.0261 71° East 541 623 37,000  Level Minneapolis Center
02:33PM 41.6878 -97.8386 71° East 535 616 37,000  Level Minneapolis Center
02:34PM 41.7350 -97.6508 71° East 534 615 37,000 -840 Level Minneapolis Center
02:35PM 41.7817 -97.4622 72° East 532 612 35,400 -1,020 Descending Minneapolis Center
02:36PM 41.8303 -97.2719 71° East 536 617 35,000 -240 Descending Minneapolis Center
02:37PM 41.8764 -97.0867 71° East 527 606 35,000  Level Minneapolis Center
02:38PM 41.9206 -96.9072 72° East 511 588 35,000  Level Minneapolis Center
02:39PM 41.9756 -96.6908 71° East 508 585 35,000  Level Minneapolis Center
02:40PM 42.0197 -96.5086 72° East 510 587 35,000  Level Minneapolis Center
02:41PM 42.0639 -96.3283 72° East 508 585 35,000  Level Minneapolis Center
02:42PM 42.1069 -96.1478 72° East 506 582 35,000 -960 Level Minneapolis Center
02:43PM 42.1500 -95.9644 72° East 509 586 33,100 -2,520 Descending Minneapolis Center
02:44PM 42.1933 -95.7789 72° East 515 593 29,900 -3,120 Descending Minneapolis Center
02:45PM 42.2358 -95.5981 72° East 503 579 26,800 -2,940 Descending Minneapolis Center
02:46PM 42.2742 -95.4281 73° East 488 562 23,900 -2,640 Descending Minneapolis Center
02:47PM 42.3100 -95.2689 73° East 455 524 21,400 -2,940 Descending Minneapolis Center
02:48PM 42.3503 -95.0972 72° East 410 472 17,900 -2,880 Descending Minneapolis Center
02:49PM 42.3811 -94.9594 73° East 388 447 15,500 -2,040 Descending Minneapolis Center
02:50PM 42.4094 -94.8358 73° East 353 406 13,700 -1,260 Descending Minneapolis Center
02:51PM 42.4358 -94.7183 73° East 332 382 13,000 -960 Descending Minneapolis Center
02:52PM 42.4589 -94.6103 74° East 306 352 11,800 -1,020 Descending Minneapolis Center
02:53PM 42.4836 -94.5017 73° East 290 334 11,000 -420 Descending Minneapolis Center
02:54PM 42.5072 -94.3958 73° East 293 337 11,000  Level Minneapolis Center
02:55PM 42.5322 -94.2919 72° East 293 337 11,000  Level Minneapolis Center
02:56PM 42.5556 -94.1894 73° East 288 331 11,000  Level Minneapolis Center
02:57PM 42.5839 -94.0603 73° East 297 342 11,000  Level Minneapolis Center
02:58PM 42.6100 -93.9506 72° East 305 351 11,000  Level Minneapolis Center
02:59PM 42.6269 -93.8372 78° East 308 354 11,000  Level Minneapolis Center
03:00PM 42.5597 -93.8247 172° South 269 310 11,000  Level Minneapolis Center
03:01PM 42.5314 -93.8986 243° Southwest 227 261 11,000  Level Minneapolis Center
03:02PM 42.5072 -93.9767 247° West 225 259 11,000 -480 Level Minneapolis Center
03:03PM 42.4750 -94.0617 243° Southwest 219 252 10,100 -1,620 Descending Minneapolis Center
03:04PM 42.4608 -94.1106 249° West 153 176 7,800 -2,100 Descending Minneapolis Center
03:05PM 42.4819 -94.1397 314° West 142 163 5,800 -1,980 Descending Minneapolis Center
03:07PM 42.5500 -94.1833 256° West  Level FlightAware Approximate
03:14PM 42.5512 -94.1918 256° West  Level Estimated
03:15PM 42.5500 -94.1833 256° West  Level FlightAware Approximate
03:16PM 42.5512 -94.1918 256° West  Level Estimated
03:17PM 42.5500 -94.1833 256° West  Level FlightAware Approximate
03:18PM 42.5512 -94.1918 256° West  Level Estimated
03:19PM 42.5500 -94.1833 256° West  Level FlightAware Approximate
03:20PM 42.5512 -94.1918 256° West  Level Estimated